Terminal Aerodrome Forecast
Issued by NWS El Paso, TX

Home | Current Version | Previous Version | Text Only | Print | Product List | Glossary On
Versions: 1 2 3 4 5 6 7 8 9 10 11 12
000
FTUS44 KEPZ 071720
TAFELP
TAF
KELP 071720Z 0718/0818 27009KT P6SM FEW045 BKN130 OVC200
     FM080400 13005KT P6SM VCSH FEW050 BKN130 OVC200
     FM080900 07008KT P6SM BKN050=

USA.gov is the U.S. government's official web portal to all federal, state and local government web resources and services.